createdAt,value
2019-01-14T00:02:14.556Z,52.69
2019-01-14T00:04:42.944Z,52.58
2019-01-14T00:07:11.321Z,52.44
2019-01-14T00:09:39.775Z,52.73
2019-01-14T00:12:08.152Z,52.50
2019-01-14T00:14:36.530Z,52.55
2019-01-14T00:17:05.347Z,52.55
2019-01-14T00:19:33.728Z,52.83
2019-01-14T00:22:02.108Z,52.77
2019-01-14T00:24:30.477Z,52.81
2019-01-14T00:26:58.866Z,52.61
2019-01-14T00:29:27.248Z,52.72
2019-01-14T00:31:55.626Z,52.82
2019-01-14T00:34:24.383Z,52.88
2019-01-14T00:36:52.754Z,52.73
2019-01-14T00:39:21.141Z,52.74
2019-01-14T00:41:49.512Z,52.82
2019-01-14T00:44:17.877Z,52.96
2019-01-14T00:46:46.265Z,52.83
2019-01-14T00:49:14.638Z,52.87
2019-01-14T00:51:43.013Z,52.68
2019-01-14T00:54:11.393Z,52.73
2019-01-14T00:56:39.775Z,52.89
2019-01-14T00:59:08.156Z,52.77
2019-01-14T01:01:36.530Z,52.76
2019-01-14T01:04:04.986Z,52.67
2019-01-14T01:06:34.218Z,52.75
2019-01-14T01:09:02.955Z,52.86
2019-01-14T01:11:31.344Z,52.69
2019-01-14T01:13:59.717Z,52.76
2019-01-14T01:16:28.101Z,52.80
2019-01-14T01:18:56.468Z,52.67
2019-01-14T01:21:24.852Z,52.97
2019-01-14T01:23:53.213Z,52.95
2019-01-14T01:26:21.594Z,53.08
2019-01-14T01:28:49.971Z,52.84
2019-01-14T01:31:18.359Z,52.78
2019-01-14T01:33:46.719Z,52.80
2019-01-14T01:36:15.106Z,52.81
2019-01-14T01:38:43.469Z,52.87
2019-01-14T01:41:11.851Z,53.00
2019-01-14T01:43:40.219Z,52.93
2019-01-14T01:46:08.590Z,52.90
2019-01-14T01:48:36.976Z,52.85
2019-01-14T01:51:05.354Z,52.80
2019-01-14T01:53:34.647Z,52.73
2019-01-14T01:56:03.015Z,52.75
2019-01-14T01:58:31.395Z,52.60
2019-01-14T02:00:59.773Z,52.62
2019-01-14T02:03:28.152Z,52.71
2019-01-14T02:05:56.524Z,52.67
2019-01-14T02:08:24.899Z,52.72
2019-01-14T02:10:53.279Z,52.60
2019-01-14T02:13:21.657Z,52.61
2019-01-14T02:15:50.026Z,52.61
2019-01-14T02:18:18.409Z,52.62
2019-01-14T02:20:46.779Z,52.72
2019-01-14T02:23:15.165Z,52.87
2019-01-14T02:25:43.542Z,52.98
2019-01-14T02:28:11.920Z,52.51
2019-01-14T02:30:40.287Z,52.81
2019-01-14T02:33:08.678Z,52.83
2019-01-14T02:35:37.053Z,52.89
2019-01-14T02:38:05.431Z,53.06
2019-01-14T02:40:33.793Z,53.00
2019-01-14T02:43:02.164Z,53.05
2019-01-14T02:45:30.543Z,52.93
2019-01-14T02:47:58.922Z,53.09
2019-01-14T02:50:27.307Z,53.17
2019-01-14T02:52:55.683Z,52.96
2019-01-14T02:55:24.077Z,52.89
2019-01-14T02:57:52.460Z,52.92
2019-01-14T03:00:24.050Z,53.13
2019-01-14T03:02:52.421Z,53.13
2019-01-14T03:05:20.810Z,52.79
2019-01-14T03:07:49.327Z,52.87
2019-01-14T03:10:17.774Z,52.67
2019-01-14T03:12:46.098Z,52.66
2019-01-14T03:15:16.324Z,52.82
2019-01-14T03:17:44.701Z,52.78
2019-01-14T03:20:15.333Z,52.70
2019-01-14T03:22:44.236Z,52.78
2019-01-14T03:25:13.566Z,52.76
2019-01-14T03:27:41.924Z,52.95
2019-01-14T03:30:13.209Z,52.84
2019-01-14T03:32:41.603Z,52.71
2019-01-14T03:35:10.214Z,52.72
2019-01-14T03:37:38.740Z,52.65
2019-01-14T03:40:10.359Z,52.97
2019-01-14T03:42:38.754Z,52.87
2019-01-14T03:45:07.963Z,53.09
2019-01-14T03:47:36.339Z,53.18
2019-01-14T03:50:07.761Z,53.01
2019-01-14T03:52:36.139Z,53.00
2019-01-14T03:55:06.659Z,52.92
2019-01-14T03:57:35.899Z,52.86
2019-01-14T04:00:08.535Z,52.33
2019-01-14T04:02:36.923Z,52.24
2019-01-14T04:05:07.796Z,52.29
2019-01-14T04:07:36.160Z,52.37
2019-01-14T04:10:18.617Z,52.37
2019-01-14T04:12:46.986Z,52.24
2019-01-14T04:15:17.293Z,52.23
2019-01-14T04:17:45.688Z,52.28
2019-01-14T04:20:16.256Z,52.21
2019-01-14T04:22:44.922Z,52.36
2019-01-14T04:25:13.565Z,52.21
2019-01-14T04:27:41.965Z,52.16
2019-01-14T04:30:16.065Z,52.28
2019-01-14T04:32:44.438Z,52.27
2019-01-14T04:35:13.160Z,52.37
2019-01-14T04:37:41.548Z,52.34
2019-01-14T04:40:12.990Z,52.27
2019-01-14T04:42:41.349Z,52.40
2019-01-14T04:45:11.864Z,52.37
2019-01-14T04:47:40.248Z,52.25
2019-01-14T04:50:12.026Z,52.37
2019-01-14T04:52:40.408Z,52.59
2019-01-14T04:55:09.234Z,52.53
2019-01-14T04:57:37.614Z,52.68
2019-01-14T05:00:12.179Z,52.79
2019-01-14T05:02:40.554Z,53.07
2019-01-14T05:05:09.905Z,53.10
2019-01-14T05:07:38.285Z,53.15
2019-01-14T05:10:09.796Z,53.21
2019-01-14T05:12:38.163Z,53.52
2019-01-14T05:15:09.440Z,53.41
2019-01-14T05:17:37.813Z,53.52
2019-01-14T05:20:10.077Z,53.71
2019-01-14T05:22:38.452Z,53.81
2019-01-14T05:25:08.279Z,53.70
2019-01-14T05:27:36.818Z,53.75
2019-01-14T05:30:08.599Z,53.80
2019-01-14T05:32:36.987Z,53.79
2019-01-14T05:35:06.797Z,53.71
2019-01-14T05:37:37.798Z,53.79
2019-01-14T05:40:19.545Z,53.70
2019-01-14T05:42:47.922Z,53.65
2019-01-14T05:45:16.318Z,53.80
2019-01-14T05:47:44.693Z,53.70
2019-01-14T05:50:15.127Z,53.63
2019-01-14T05:52:43.948Z,53.66
2019-01-14T05:55:13.380Z,53.62
2019-01-14T05:57:41.856Z,53.71
2019-01-14T06:00:21.727Z,53.71
2019-01-14T06:02:50.109Z,53.96
2019-01-14T06:05:18.509Z,53.92
2019-01-14T06:07:46.882Z,53.95
2019-01-14T06:10:15.275Z,53.96
2019-01-14T06:12:43.668Z,53.96
2019-01-14T06:15:14.386Z,53.94
2019-01-14T06:17:42.771Z,54.00
2019-01-14T06:20:14.832Z,53.92
2019-01-14T06:22:43.264Z,53.94
2019-01-14T06:25:13.786Z,53.94
2019-01-14T06:27:42.169Z,53.91
2019-01-14T06:30:16.775Z,54.03
2019-01-14T06:32:45.164Z,54.13
2019-01-14T06:35:13.886Z,53.94
2019-01-14T06:37:42.279Z,54.06
2019-01-14T06:40:14.094Z,54.00
2019-01-14T06:42:42.489Z,54.01
2019-01-14T06:45:11.697Z,53.98
2019-01-14T06:47:40.152Z,54.06
2019-01-14T06:50:14.389Z,53.99
2019-01-14T06:52:42.948Z,53.99
2019-01-14T06:55:11.758Z,54.08
2019-01-14T06:57:40.169Z,53.97
2019-01-14T07:00:11.598Z,53.82
2019-01-14T07:02:39.985Z,53.87
2019-01-14T07:05:09.798Z,53.77
2019-01-14T07:07:38.190Z,53.78
2019-01-14T07:10:09.616Z,53.70
2019-01-14T07:12:38.003Z,53.71
2019-01-14T07:15:08.513Z,53.57
2019-01-14T07:17:37.888Z,53.39
2019-01-14T07:20:11.355Z,53.39
2019-01-14T07:22:39.810Z,53.28
2019-01-14T07:25:09.622Z,53.39
2019-01-14T07:27:38.008Z,53.44
2019-01-14T07:30:09.428Z,53.34
2019-01-14T07:32:37.940Z,53.38
2019-01-14T07:35:06.753Z,53.33
2019-01-14T07:37:35.149Z,53.39
2019-01-14T07:40:05.771Z,53.31
2019-01-14T07:42:34.165Z,53.28
2019-01-14T07:45:02.601Z,53.18
2019-01-14T07:47:30.989Z,53.23
2019-01-14T07:49:59.368Z,53.32
2019-01-14T07:52:27.754Z,53.24
2019-01-14T07:54:56.130Z,53.16
2019-01-14T07:57:24.499Z,53.07
2019-01-14T07:59:52.889Z,52.96
2019-01-14T08:02:21.271Z,53.03
2019-01-14T08:04:49.659Z,53.20
2019-01-14T08:07:18.032Z,53.02
2019-01-14T08:09:46.428Z,53.05
2019-01-14T08:12:14.806Z,53.00
2019-01-14T08:14:43.195Z,52.94
2019-01-14T08:17:11.571Z,52.87
2019-01-14T08:19:39.955Z,52.83
2019-01-14T08:22:08.512Z,52.71
2019-01-14T08:24:36.898Z,52.68
2019-01-14T08:27:05.341Z,52.68
2019-01-14T08:29:33.814Z,52.62
2019-01-14T08:32:02.188Z,52.56
2019-01-14T08:34:30.672Z,52.57
2019-01-14T08:37:00.854Z,52.50
2019-01-14T08:39:29.156Z,52.49
2019-01-14T08:41:59.342Z,52.60
2019-01-14T08:44:29.374Z,52.70
2019-01-14T08:46:57.750Z,52.61
2019-01-14T08:49:26.136Z,52.79
2019-01-14T08:51:54.511Z,52.99
2019-01-14T08:54:22.900Z,53.04
2019-01-14T08:56:51.342Z,52.95
2019-01-14T08:59:19.731Z,52.92
2019-01-14T09:01:48.195Z,52.93
2019-01-14T09:04:22.254Z,52.81
2019-01-14T09:06:46.736Z,52.85
2019-01-14T09:09:15.122Z,52.93
2019-01-14T09:11:43.498Z,52.87
2019-01-14T09:14:11.883Z,52.90
2019-01-14T09:16:40.263Z,52.85
2019-01-14T09:19:09.100Z,52.80
2019-01-14T09:21:37.477Z,52.86
2019-01-14T09:24:05.869Z,52.91
2019-01-14T09:26:34.247Z,52.84
2019-01-14T09:29:02.623Z,52.84
2019-01-14T09:31:32.946Z,52.74
2019-01-14T09:34:02.571Z,52.75
2019-01-14T09:36:30.949Z,52.61
2019-01-14T09:38:59.324Z,52.74
2019-01-14T09:41:27.713Z,52.61
2019-01-14T09:43:56.399Z,52.63
2019-01-14T09:46:24.788Z,52.92
2019-01-14T09:48:53.160Z,52.92
2019-01-14T09:51:21.545Z,52.54
2019-01-14T09:53:49.925Z,52.63
2019-01-14T09:56:18.304Z,52.42
2019-01-14T09:58:46.680Z,52.42
2019-01-14T10:01:15.065Z,52.68
2019-01-14T10:03:43.510Z,52.57
2019-01-14T10:06:11.904Z,52.65
2019-01-14T10:08:43.151Z,52.57
2019-01-14T10:11:10.409Z,52.29
2019-01-14T10:13:39.561Z,52.50
2019-01-14T10:16:08.022Z,52.54
2019-01-14T10:18:36.394Z,52.52
2019-01-14T10:21:04.856Z,52.48
2019-01-14T10:23:33.227Z,52.37
2019-01-14T10:26:02.591Z,52.18
2019-01-14T10:28:30.959Z,52.17
2019-01-14T10:30:59.351Z,52.01
2019-01-14T10:33:27.723Z,51.98
2019-01-14T10:35:56.107Z,51.87
2019-01-14T10:38:24.485Z,51.88
2019-01-14T10:40:52.881Z,51.87
2019-01-14T10:43:21.250Z,51.71
2019-01-14T10:45:49.644Z,51.72
2019-01-14T10:48:18.183Z,51.72
2019-01-14T10:50:46.574Z,51.53
2019-01-14T10:53:15.829Z,51.50
2019-01-14T10:55:44.213Z,51.42
2019-01-14T10:58:12.588Z,51.47
2019-01-14T11:00:40.975Z,51.41
2019-01-14T11:03:10.387Z,51.46
2019-01-14T11:05:38.832Z,51.41
2019-01-14T11:08:07.217Z,51.19
2019-01-14T11:10:35.592Z,51.21
2019-01-14T11:13:04.847Z,51.34
2019-01-14T11:15:33.225Z,51.14
2019-01-14T11:18:01.609Z,50.98
2019-01-14T11:20:30.754Z,50.70
2019-01-14T11:22:59.676Z,50.48
2019-01-14T11:25:28.047Z,50.12
2019-01-14T11:27:57.976Z,49.95
2019-01-14T11:30:28.287Z,49.89
2019-01-14T11:32:56.746Z,49.99
2019-01-14T11:35:25.130Z,50.10
2019-01-14T11:37:53.509Z,50.32
2019-01-14T11:40:24.323Z,50.54
2019-01-14T11:42:52.709Z,50.49
2019-01-14T11:45:21.085Z,50.56
2019-01-14T11:47:49.476Z,50.58
2019-01-14T11:50:18.389Z,50.48
2019-01-14T11:52:47.016Z,50.35
2019-01-14T11:55:15.383Z,50.29
2019-01-14T11:57:43.772Z,50.06
2019-01-14T12:00:21.196Z,50.01
2019-01-14T12:02:49.656Z,49.87
2019-01-14T12:05:18.111Z,49.59
2019-01-14T12:07:46.493Z,49.35
2019-01-14T12:10:15.443Z,48.94
2019-01-14T12:12:43.831Z,48.75
2019-01-14T12:15:15.651Z,48.64
2019-01-14T12:17:44.040Z,48.60
2019-01-14T12:20:15.981Z,48.60
2019-01-14T12:22:44.798Z,48.64
2019-01-14T12:25:13.619Z,48.53
2019-01-14T12:27:42.015Z,48.34
2019-01-14T12:30:31.791Z,48.40
2019-01-14T12:33:00.730Z,48.58
2019-01-14T12:35:29.228Z,48.52
2019-01-14T12:37:57.853Z,48.53
2019-01-14T12:40:26.230Z,48.51
2019-01-14T12:42:54.617Z,48.63
2019-01-14T12:45:23.230Z,48.62
2019-01-14T12:47:51.757Z,48.72
2019-01-14T12:50:21.678Z,48.82
2019-01-14T12:52:50.122Z,48.92
2019-01-14T12:55:19.553Z,49.02
2019-01-14T12:57:48.097Z,49.15
2019-01-14T13:00:19.268Z,49.20
2019-01-14T13:02:47.643Z,49.23
2019-01-14T13:05:17.668Z,49.22
2019-01-14T13:07:46.043Z,49.13
2019-01-14T13:10:15.570Z,49.07
2019-01-14T13:12:44.051Z,49.09
2019-01-14T13:15:15.379Z,49.12
2019-01-14T13:17:43.753Z,49.12
2019-01-14T13:20:15.192Z,49.01
2019-01-14T13:22:43.839Z,49.01
2019-01-14T13:25:12.670Z,49.01
2019-01-14T13:27:41.866Z,49.07
2019-01-14T13:30:18.608Z,49.07
2019-01-14T13:32:46.995Z,49.20
2019-01-14T13:35:15.547Z,49.25
2019-01-14T13:37:43.925Z,49.33
2019-01-14T13:40:13.248Z,49.36
2019-01-14T13:42:41.696Z,49.40
2019-01-14T13:45:13.221Z,49.68
2019-01-14T13:47:41.801Z,49.59
2019-01-14T13:50:13.124Z,49.61
2019-01-14T13:52:41.761Z,49.62
2019-01-14T13:55:10.485Z,49.56
2019-01-14T13:57:39.029Z,49.70
2019-01-14T14:00:10.466Z,49.72
2019-01-14T14:02:38.844Z,49.71
2019-01-14T14:05:08.070Z,49.77
2019-01-14T14:07:36.446Z,49.88
2019-01-14T14:10:08.115Z,49.89
2019-01-14T14:12:36.484Z,49.86
2019-01-14T14:15:07.508Z,49.85
2019-01-14T14:17:35.887Z,49.82
2019-01-14T14:20:07.463Z,49.83
2019-01-14T14:22:35.837Z,49.92
2019-01-14T14:25:05.962Z,49.90
2019-01-14T14:27:34.403Z,50.08
2019-01-14T14:30:03.434Z,50.07
2019-01-14T14:32:31.800Z,50.13
2019-01-14T14:35:00.247Z,50.24
2019-01-14T14:37:28.575Z,50.13
2019-01-14T14:39:56.958Z,50.12
2019-01-14T14:42:25.333Z,50.16
2019-01-14T14:44:53.706Z,50.21
2019-01-14T14:47:22.098Z,50.40
2019-01-14T14:49:50.468Z,50.42
2019-01-14T14:52:18.856Z,50.28
2019-01-14T14:54:47.240Z,50.39
2019-01-14T14:57:15.626Z,50.34
2019-01-14T14:59:44.000Z,50.35
2019-01-14T15:02:12.561Z,50.44
2019-01-14T15:04:40.940Z,50.50
2019-01-14T15:07:09.322Z,50.37
2019-01-14T15:09:37.782Z,50.46
2019-01-14T15:12:06.171Z,50.51
2019-01-14T15:14:34.546Z,50.62
2019-01-14T15:17:02.932Z,50.70
2019-01-14T15:35:28.295Z,51.65
2019-01-14T15:37:56.687Z,51.95
2019-01-14T15:40:25.202Z,51.95
2019-01-14T15:42:53.586Z,52.53
2019-01-14T15:45:23.697Z,52.62
2019-01-14T15:47:52.147Z,52.68
2019-01-14T15:50:20.535Z,52.64
2019-01-14T15:52:48.917Z,52.65
2019-01-14T15:55:19.930Z,52.68
2019-01-14T15:57:48.318Z,52.80
2019-01-14T16:00:18.529Z,52.90
2019-01-14T16:02:47.609Z,52.83
2019-01-14T16:05:17.492Z,52.93
2019-01-14T16:07:46.116Z,52.85
2019-01-14T16:10:17.037Z,52.81
2019-01-14T16:12:45.413Z,52.81
2019-01-14T16:15:14.229Z,52.95
2019-01-14T16:17:43.336Z,52.79
2019-01-14T16:20:14.222Z,52.61
2019-01-14T16:22:43.313Z,52.70
2019-01-14T16:25:11.691Z,52.56
2019-01-14T16:27:40.074Z,52.56
2019-01-14T16:30:17.224Z,52.51
2019-01-14T16:32:45.650Z,52.57
2019-01-14T16:35:14.192Z,52.58
2019-01-14T16:37:43.483Z,52.49
2019-01-14T16:40:17.932Z,52.77
2019-01-14T16:42:42.368Z,52.16
2019-01-14T16:45:16.289Z,51.80
2019-01-14T16:47:44.965Z,51.48
2019-01-14T16:50:15.063Z,51.25
2019-01-14T16:52:43.856Z,51.43
2019-01-14T16:55:13.978Z,51.55
2019-01-14T16:57:42.360Z,52.05
2019-01-14T17:00:14.411Z,52.27
2019-01-14T17:02:43.655Z,52.37
2019-01-14T17:05:13.637Z,52.44
2019-01-14T17:07:42.035Z,52.52
2019-01-14T17:10:12.947Z,53.02
2019-01-14T17:12:41.325Z,52.98
2019-01-14T17:15:10.160Z,53.25
2019-01-14T17:17:38.529Z,53.64
2019-01-14T17:20:15.561Z,54.75
2019-01-14T17:22:44.103Z,55.11
2019-01-14T17:25:13.157Z,55.25
2019-01-14T17:27:41.538Z,55.26
2019-01-14T17:30:12.764Z,54.89
2019-01-14T17:32:41.149Z,54.69
2019-01-14T17:35:09.691Z,54.96
2019-01-14T17:37:38.071Z,54.64
2019-01-14T17:40:14.674Z,54.95
2019-01-14T17:42:43.053Z,55.37
2019-01-14T17:45:11.892Z,55.11
2019-01-14T17:47:40.525Z,54.94
2019-01-14T17:50:11.967Z,54.86
2019-01-14T17:52:40.512Z,54.83
2019-01-14T17:55:09.448Z,54.77
2019-01-14T17:57:37.828Z,54.67
2019-01-14T18:00:23.611Z,54.92
2019-01-14T18:02:52.071Z,55.01
2019-01-14T18:05:20.458Z,55.30
2019-01-14T18:07:48.838Z,55.03
2019-01-14T18:10:19.011Z,54.89
2019-01-14T18:12:47.322Z,54.97
2019-01-14T18:15:15.775Z,54.61
2019-01-14T18:17:44.439Z,54.53
2019-01-14T18:20:15.066Z,54.27
2019-01-14T18:22:44.624Z,54.08
2019-01-14T18:25:13.246Z,53.90
2019-01-14T18:27:41.642Z,53.79
2019-01-14T18:30:13.325Z,53.99
2019-01-14T18:32:41.701Z,54.01
2019-01-14T18:35:10.092Z,53.88
2019-01-14T18:37:38.464Z,54.51
2019-01-14T18:40:09.994Z,55.51
2019-01-14T18:42:38.530Z,55.58
2019-01-14T18:45:15.579Z,55.37
2019-01-14T18:47:44.793Z,54.84
2019-01-14T18:50:15.724Z,54.69
2019-01-14T18:52:44.774Z,54.16
2019-01-14T18:55:13.228Z,52.94
2019-01-14T18:57:41.608Z,52.67
2019-01-14T19:00:18.966Z,51.30
2019-01-14T19:02:47.420Z,49.98
2019-01-14T19:05:15.805Z,49.69
2019-01-14T19:07:44.952Z,49.60
2019-01-14T19:10:14.195Z,49.85
2019-01-14T19:12:42.574Z,49.61
2019-01-14T19:15:16.127Z,49.99
2019-01-14T19:17:45.125Z,50.12
2019-01-14T19:20:16.448Z,50.54
2019-01-14T19:22:45.091Z,50.31
2019-01-14T19:25:14.351Z,50.40
2019-01-14T19:27:42.730Z,50.52
2019-01-14T19:30:14.158Z,50.64
2019-01-14T19:32:42.539Z,50.74
2019-01-14T19:35:11.083Z,50.76
2019-01-14T19:37:39.822Z,50.95
2019-01-14T19:40:11.440Z,51.08
2019-01-14T19:42:39.821Z,51.08
2019-01-14T19:45:10.439Z,51.26
2019-01-14T19:47:38.837Z,51.21
2019-01-14T19:50:10.423Z,51.47
2019-01-14T19:52:38.809Z,51.27
2019-01-14T19:55:07.622Z,51.50
2019-01-14T19:57:36.086Z,51.62
2019-01-14T20:00:08.009Z,51.87
2019-01-14T20:02:36.392Z,51.75
2019-01-14T20:05:06.509Z,51.64
2019-01-14T20:07:34.900Z,51.96
2019-01-14T20:10:04.317Z,51.83
2019-01-14T20:12:32.708Z,51.91
2019-01-14T20:15:01.080Z,52.03
2019-01-14T20:17:30.279Z,52.09
2019-01-14T20:19:58.721Z,52.26
2019-01-14T20:22:27.109Z,52.19
2019-01-14T20:24:55.494Z,52.25
2019-01-14T20:27:23.879Z,52.27
2019-01-14T20:29:52.246Z,52.25
2019-01-14T20:32:20.633Z,52.74
2019-01-14T20:34:49.006Z,52.56
2019-01-14T20:37:17.394Z,52.55
2019-01-14T20:39:45.899Z,52.49
2019-01-14T20:42:14.289Z,52.81
2019-01-14T20:44:42.674Z,52.70
2019-01-14T20:47:11.062Z,52.71
2019-01-14T20:49:39.434Z,52.66
2019-01-14T20:52:07.821Z,52.51
2019-01-14T20:54:36.194Z,52.50
2019-01-14T20:57:04.588Z,52.65
2019-01-14T20:59:34.520Z,52.65
2019-01-14T21:02:03.331Z,52.36
2019-01-14T21:04:31.697Z,52.36
2019-01-14T21:07:00.149Z,52.54
2019-01-14T21:09:28.531Z,52.43
2019-01-14T21:11:56.905Z,52.53
2019-01-14T21:14:25.293Z,52.56
2019-01-14T21:16:53.668Z,52.44
2019-01-14T21:19:22.057Z,52.55
2019-01-14T21:21:50.440Z,52.35
2019-01-14T21:24:18.818Z,52.46
2019-01-14T21:26:47.195Z,52.50
2019-01-14T21:29:16.407Z,52.47
2019-01-14T21:31:44.778Z,52.39
2019-01-14T21:34:13.165Z,52.47
2019-01-14T21:36:41.547Z,53.22
2019-01-14T21:39:11.671Z,53.22
2019-01-14T21:41:40.051Z,52.83
2019-01-14T21:44:08.509Z,52.86
2019-01-14T21:46:36.890Z,52.73
2019-01-14T21:49:05.269Z,52.69
2019-01-14T21:51:33.640Z,52.61
2019-01-14T21:54:02.028Z,52.70
2019-01-14T21:56:30.398Z,52.65
2019-01-14T21:58:58.781Z,52.53
2019-01-14T22:01:27.159Z,52.50
2019-01-14T22:03:55.546Z,52.53
2019-01-14T22:06:23.925Z,52.61
2019-01-14T22:08:52.308Z,52.54
2019-01-14T22:11:20.686Z,52.60
2019-01-14T22:13:49.068Z,52.53
2019-01-14T22:16:18.002Z,52.50
2019-01-14T22:18:46.948Z,52.47
2019-01-14T22:21:15.326Z,52.48
2019-01-14T22:23:43.714Z,52.44
2019-01-14T22:26:12.101Z,52.45
2019-01-14T22:28:40.488Z,52.33
2019-01-14T22:31:08.863Z,52.49
2019-01-14T22:33:37.251Z,52.52
2019-01-14T22:36:05.624Z,52.43
2019-01-14T22:38:34.023Z,52.16
2019-01-14T22:41:02.404Z,52.06
2019-01-14T22:43:30.783Z,52.06
2019-01-14T22:45:59.168Z,52.01
2019-01-14T22:48:27.539Z,52.03
2019-01-14T22:50:55.925Z,51.89
2019-01-14T22:53:24.314Z,51.83
2019-01-14T22:55:52.794Z,51.71
2019-01-14T22:58:21.170Z,51.81
2019-01-14T23:00:57.204Z,51.71
2019-01-14T23:03:25.721Z,51.75
2019-01-14T23:05:54.104Z,51.78
2019-01-14T23:08:22.556Z,51.71
2019-01-14T23:10:51.017Z,51.69
2019-01-14T23:13:19.385Z,51.67
2019-01-14T23:15:47.768Z,51.69
2019-01-14T23:18:16.136Z,51.67
2019-01-14T23:20:44.528Z,51.63
2019-01-14T23:23:12.906Z,51.61
2019-01-14T23:25:41.299Z,51.65
2019-01-14T23:28:09.672Z,51.49
2019-01-14T23:30:38.057Z,51.39
2019-01-14T23:33:06.430Z,51.61
2019-01-14T23:35:34.811Z,51.49
2019-01-14T23:38:03.255Z,51.47
2019-01-14T23:40:31.647Z,51.47
2019-01-14T23:43:00.032Z,51.46
2019-01-14T23:45:28.513Z,51.46
2019-01-14T23:47:56.891Z,51.37
2019-01-14T23:50:25.276Z,51.37
2019-01-14T23:52:53.652Z,51.41
2019-01-14T23:55:22.047Z,51.32
2019-01-14T23:57:50.422Z,51.45
